Sarasota, FL (34230)

8:28 AM EDT on August 04, 2015 (GMT -0400)
THE MEADOWS | | Change Station
CLOSE
Current Station
Personal Weather Station
Location: Sarasota, FL
Elevation: 39 ft
Nearby Weather Stations
Active Advisory: Flood Warning Active Notice: Record Report

Elev 39 ft 27.36 °N, 82.47 °W | Updated 3 minutes ago

Clear
Clear
77.8 °F
Feels Like 80 °F
N
0.0
Wind Variable Wind from SSW
Gusts 0.0 mph

Today
High -- | Low -- °F
--% Chance of Precip.
Yesterday
High -- | Low -- °F
Precip. -- in
6:55 AM 8:16 PM
Waning Gibbous, 78% visible
Pressure 30.03 in
Visibility 10.0 miles
Clouds Clear
Heat Index 80 °F
Dew Point 76 °F
Humidity 95%
Rainfall 0.00 in
Snow Depth Not available.
UV 1 out of 12
Pollen 2.60 out of 12
Air Quality Not available.
Flu Activity Not available.
METAR KSRQ 041153Z AUTO 13003KT 10SM CLR 24/23 A3003 RMK AO2 SLP168 70040 T02440233 10267 20233 53014

More Conditions Fewer Conditions

Pressure 30.03 in
Visibility 10.0 miles
Clouds Clear
Heat Index 80 °F
Dew Point 76 °F
Humidity 95%
Rainfall 0.00 in
Snow Depth Not available.
UV 1 out of 12
Pollen 2.60 out of 12
Air Quality Not available.
Flu Activity Not available.
METAR KSRQ 041153Z AUTO 13003KT 10SM CLR 24/23 A3003 RMK AO2 SLP168 70040 T02440233 10267 20233 53014

More Conditions Fewer Conditions

10-Day Weather Forecast

×

Almanac

Astronomy

Aug. 04, 2015 Rise Set
Actual Time
Civil Twilight
Nautical Twilight
Astronomical Twilight
Moon
Length of Visible Light
Length of Day
Tomorrow will be .
, % of the Moon is Illuminated

Today's Extremes

State Highs State Lows

Community

WunderPhotos

Upload Photos

1,843,910 photos uploaded!

WunderBlogs® & News

Nearby

Air Quality

  Air Quality AQ Index Pollutant
Not available.

Snow Depth

Station Depth Elevation

Earthquake Activity

City Distance Mag. Time & Date
Minimum magnitude displayed is 2.5.

Coastal Water Temperatures

Place Temperature

Stations

Nearby Weather Stations

Station Location Temp. Windchill Dew Point Humidity Wind Precip. Elev Updated Type
                   
Flood Warning
Statement as of 7:46 AM EDT on August 04, 2015

The Flood Warning continues for
the Myakka River at Myakka River State Park
* until further notice
* at 07 am Tuesday the stage was 7.6 feet
* flood stage is 7 feet
* the river will remain near 7.6 feet this morning then begin
falling very slowly.
* Impact... at 8.5 feet... most of Myakka State Park is closed.
* Impact... at 8 feet... the main Road at Myakka State Park floods.
* Impact... at 7 feet... trails, picnic areas, and parking lots at Myakka State
Park flood.
* Flood history... this crest compares to a previous crest of 7.2 feet on Sep 9
2013.



             Fld observed forecast 8am
location stg stg day time Wed Thu Fri Sat sun

Myakka
Myakka rive 7 7.6 Tue 07 am 7.5 7.4 7.2 7.1 7.0




Lat... Lon 2726 8226 2715 8234 2715 8238 2731 8226